Time;durP1;ratioP1;P1;durP2;ratioP2;P2;SDS_P1;SDS_P2;PMS_P1;PMS_P2;Temp;Humidity;BMP_temperature;BMP_pressure;BME280_temperature;BME280_humidity;BME280_pressure;Samples;Min_cycle;Max_cycle;Signal;HPM_P1;HPM_P2
2024/01/20 00:01:52;;;;;;;;;;;17.00;60.10;;;;;;5037903;28;1973;-68
2024/01/20 00:04:18;;;;;;;;;;;17.00;60.10;;;;;;5035490;28;1906;-68
2024/01/20 00:06:44;;;;;;;;;;;17.00;60.10;;;;;;5068370;28;1635;-66
2024/01/20 00:09:10;;;;;;;;;;;17.00;60.10;;;;;;5041482;28;1435;-66
2024/01/20 00:11:35;;;;;;;;;;;17.00;60.10;;;;;;5036857;28;1198;-66
2024/01/20 00:14:00;;;;;;;;;;;17.00;60.10;;;;;;5037143;28;1466;-66
2024/01/20 00:16:26;;;;;;;;;;;17.00;60.10;;;;;;5038921;28;1478;-67
2024/01/20 00:18:51;;;;;;;;;;;17.00;60.20;;;;;;5036477;28;1127;-66
2024/01/20 00:21:17;;;;;;;;;;;17.00;60.20;;;;;;5037650;28;1269;-66
2024/01/20 00:23:42;;;;;;;;;;;17.00;60.20;;;;;;5037654;28;1894;-66
2024/01/20 00:26:08;;;;;;;;;;;17.00;60.20;;;;;;5039949;28;1356;-66
2024/01/20 00:28:33;;;;;;;;;;;17.00;60.30;;;;;;5038083;28;1204;-66
2024/01/20 00:30:58;;;;;;;;;;;17.00;60.30;;;;;;5041616;28;1326;-67
2024/01/20 00:33:25;;;;;;;;;;;17.00;60.30;;;;;;5035018;28;1120;-67
2024/01/20 00:35:51;;;;;;;;;;;17.00;60.40;;;;;;5038740;28;1491;-66
2024/01/20 00:38:16;;;;;;;;;;;17.00;60.40;;;;;;5039504;28;1468;-66
2024/01/20 00:40:42;;;;;;;;;;;17.00;60.40;;;;;;5037628;28;1525;-68
2024/01/20 00:43:08;;;;;;;;;;;17.00;60.40;;;;;;5040084;28;1922;-66
2024/01/20 00:45:33;;;;;;;;;;;17.00;60.40;;;;;;5037275;28;1272;-66
2024/01/20 00:47:59;;;;;;;;;;;17.00;60.40;;;;;;5038212;28;1421;-66
2024/01/20 00:50:24;;;;;;;;;;;17.00;60.40;;;;;;5040786;28;1354;-68
2024/01/20 00:52:49;;;;;;;;;;;17.00;60.50;;;;;;5038614;28;1386;-67
2024/01/20 00:55:15;;;;;;;;;;;17.00;60.50;;;;;;5039961;28;1668;-67
2024/01/20 00:57:40;;;;;;;;;;;17.00;60.60;;;;;;5042699;28;1465;-67
2024/01/20 01:00:08;;;;;;;;;;;17.00;60.50;;;;;;5043172;28;1341;-66
2024/01/20 01:02:33;;;;;;;;;;;17.00;60.50;;;;;;5072395;28;1275;-67
2024/01/20 01:04:59;;;;;;;;;;;17.00;60.50;;;;;;5041605;28;1902;-66
2024/01/20 01:07:24;;;;;;;;;;;16.90;60.50;;;;;;5047259;28;1475;-68
2024/01/20 01:09:50;;;;;;;;;;;16.90;60.50;;;;;;5043005;28;1456;-67
2024/01/20 01:12:15;;;;;;;;;;;16.90;60.60;;;;;;5044166;28;1403;-66
2024/01/20 01:14:41;;;;;;;;;;;16.90;60.50;;;;;;5044884;28;1805;-66
2024/01/20 01:17:06;;;;;;;;;;;16.90;60.60;;;;;;5040488;28;1355;-67
2024/01/20 01:19:32;;;;;;;;;;;16.90;60.60;;;;;;5040561;28;1540;-66
2024/01/20 01:21:57;;;;;;;;;;;16.90;60.60;;;;;;5040004;28;1427;-67
2024/01/20 01:24:23;;;;;;;;;;;16.90;60.60;;;;;;5041587;28;1894;-67
2024/01/20 01:26:48;;;;;;;;;;;17.00;60.70;;;;;;5039415;28;1554;-65
2024/01/20 01:29:14;;;;;;;;;;;16.90;60.60;;;;;;5042671;28;1363;-67
2024/01/20 01:31:39;;;;;;;;;;;16.90;60.60;;;;;;5041714;28;1530;-67
2024/01/20 01:34:05;;;;;;;;;;;16.90;60.60;;;;;;5042828;28;1460;-66
2024/01/20 01:36:30;;;;;;;;;;;16.90;60.70;;;;;;5041063;28;1518;-66
2024/01/20 01:38:56;;;;;;;;;;;16.90;60.70;;;;;;5039841;28;1619;-67
2024/01/20 01:41:21;;;;;;;;;;;16.90;60.70;;;;;;5043055;28;1265;-66
2024/01/20 01:43:46;;;;;;;;;;;16.90;60.70;;;;;;5040700;28;1894;-66
2024/01/20 01:46:12;;;;;;;;;;;16.90;61.40;;;;;;5042553;28;1428;-66
2024/01/20 01:48:38;;;;;;;;;;;16.90;60.70;;;;;;5041926;28;1587;-66
2024/01/20 01:51:04;;;;;;;;;;;16.90;60.70;;;;;;5041522;28;1442;-67
2024/01/20 01:53:30;;;;;;;;;;;16.90;60.70;;;;;;5041719;28;1449;-66
2024/01/20 01:55:55;;;;;;;;;;;16.90;60.70;;;;;;5071037;28;1420;-65
2024/01/20 01:58:20;;;;;;;;;;;16.90;60.70;;;;;;5039873;28;1380;-67
2024/01/20 02:00:47;;;;;;;;;;;16.90;60.70;;;;;;5069450;28;1380;-66
2024/01/20 02:03:13;;;;;;;;;;;16.90;60.70;;;;;;5042917;28;1975;-64
2024/01/20 02:05:38;;;;;;;;;;;16.90;60.80;;;;;;5040902;28;1410;-67
2024/01/20 02:08:04;;;;;;;;;;;16.90;60.80;;;;;;5046762;28;1648;-65
2024/01/20 02:10:32;;;;;;;;;;;16.90;60.80;;;;;;5042597;28;1377;-64
2024/01/20 02:12:58;;;;;;;;;;;16.90;60.80;;;;;;5073389;28;1477;-65
2024/01/20 02:15:23;;;;;;;;;;;16.90;60.80;;;;;;5041467;28;1386;-65
2024/01/20 02:17:49;;;;;;;;;;;16.90;60.80;;;;;;5040377;28;1617;-65
2024/01/20 02:20:15;;;;;;;;;;;16.90;60.80;;;;;;5039259;28;1782;-65
2024/01/20 02:22:40;;;;;;;;;;;16.90;60.80;;;;;;5038913;28;1434;-65
2024/01/20 02:25:06;;;;;;;;;;;16.90;60.90;;;;;;5038606;28;1980;-65
2024/01/20 02:27:31;;;;;;;;;;;16.90;60.80;;;;;;5041698;28;1497;-64
2024/01/20 02:29:57;;;;;;;;;;;16.90;60.80;;;;;;5040087;28;1514;-67
2024/01/20 02:32:25;;;;;;;;;;;16.90;60.90;;;;;;5038735;28;1458;-64
2024/01/20 02:34:50;;;;;;;;;;;16.90;60.90;;;;;;5039022;28;1436;-66
2024/01/20 02:37:16;;;;;;;;;;;16.90;60.90;;;;;;5040718;28;1177;-64
2024/01/20 02:39:41;;;;;;;;;;;16.90;60.90;;;;;;5039902;28;1442;-64
2024/01/20 02:42:08;;;;;;;;;;;16.90;60.90;;;;;;5040343;28;1544;-64
2024/01/20 02:44:34;;;;;;;;;;;16.90;60.90;;;;;;5042658;28;1902;-67
2024/01/20 02:46:59;;;;;;;;;;;16.90;60.90;;;;;;5040287;28;1347;-65
2024/01/20 02:49:25;;;;;;;;;;;16.90;60.90;;;;;;5041340;28;1465;-66
2024/01/20 02:51:50;;;;;;;;;;;16.90;60.90;;;;;;5039794;28;1465;-65
2024/01/20 02:54:16;;;;;;;;;;;16.90;60.90;;;;;;5039847;28;1667;-65
2024/01/20 02:56:41;;;;;;;;;;;16.90;61.00;;;;;;5039650;28;1447;-66
2024/01/20 02:59:07;;;;;;;;;;;16.90;61.70;;;;;;5040514;28;1426;-67
2024/01/20 03:01:32;;;;;;;;;;;16.90;61.00;;;;;;5041042;28;1461;-67
2024/01/20 03:03:57;;;;;;;;;;;16.90;61.00;;;;;;5041709;28;1973;-67
2024/01/20 03:06:23;;;;;;;;;;;16.90;61.00;;;;;;5037400;28;1470;-67
2024/01/20 03:08:48;;;;;;;;;;;16.80;60.90;;;;;;5040110;28;1241;-67
2024/01/20 03:11:17;;;;;;;;;;;16.80;60.90;;;;;;5042054;28;1246;-68
2024/01/20 03:13:42;;;;;;;;;;;16.80;61.50;;;;;;5040762;28;1488;-68
2024/01/20 03:16:08;;;;;;;;;;;16.90;61.00;;;;;;5042553;28;1455;-67
2024/01/20 03:18:34;;;;;;;;;;;16.90;61.00;;;;;;5037930;28;1267;-66
2024/01/20 03:20:59;;;;;;;;;;;16.80;61.70;;;;;;5038778;28;1304;-66
2024/01/20 03:23:25;;;;;;;;;;;16.90;61.00;;;;;;5038046;28;1902;-68
2024/01/20 03:25:50;;;;;;;;;;;16.80;60.90;;;;;;5039066;28;1597;-68
2024/01/20 03:28:16;;;;;;;;;;;16.90;61.00;;;;;;5042602;28;1515;-68
2024/01/20 03:30:42;;;;;;;;;;;16.90;61.00;;;;;;5039891;28;1463;-67
2024/01/20 03:33:07;;;;;;;;;;;16.90;61.00;;;;;;5038862;28;1248;-67
2024/01/20 03:35:33;;;;;;;;;;;16.90;61.00;;;;;;5040860;28;1512;-67
2024/01/20 03:37:58;;;;;;;;;;;16.80;61.00;;;;;;5039546;28;1416;-66
2024/01/20 03:40:24;;;;;;;;;;;16.80;60.90;;;;;;5040385;28;1486;-66
2024/01/20 03:42:49;;;;;;;;;;;16.90;61.00;;;;;;5038280;28;1249;-66
2024/01/20 03:45:15;;;;;;;;;;;16.80;60.90;;;;;;5043313;28;1894;-66
2024/01/20 03:47:40;;;;;;;;;;;16.90;61.10;;;;;;5037534;28;1511;-66
2024/01/20 03:50:06;;;;;;;;;;;16.80;60.90;;;;;;5037249;28;2087;-66
2024/01/20 03:52:31;;;;;;;;;;;16.90;61.00;;;;;;5038000;28;1536;-66
2024/01/20 03:54:57;;;;;;;;;;;16.80;61.00;;;;;;5037323;28;1684;-66
2024/01/20 03:57:23;;;;;;;;;;;16.80;61.00;;;;;;5069056;28;1538;-66
2024/01/20 03:59:49;;;;;;;;;;;16.80;61.00;;;;;;5039307;28;963;-66
2024/01/20 04:02:14;;;;;;;;;;;16.80;61.00;;;;;;5036576;28;1247;-66
2024/01/20 04:04:39;;;;;;;;;;;16.80;61.00;;;;;;5040514;28;1959;-68
2024/01/20 04:07:05;;;;;;;;;;;16.80;61.00;;;;;;5038724;28;1352;-69
2024/01/20 04:09:31;;;;;;;;;;;16.80;61.00;;;;;;5037052;28;1714;-69
2024/01/20 04:11:56;;;;;;;;;;;16.80;61.00;;;;;;5036884;28;1654;-69
2024/01/20 04:14:22;;;;;;;;;;;16.80;61.00;;;;;;5038730;28;1429;-68
2024/01/20 04:16:47;;;;;;;;;;;16.80;61.00;;;;;;5040326;28;1455;-69
2024/01/20 04:19:13;;;;;;;;;;;16.80;61.00;;;;;;5070408;28;1381;-68
2024/01/20 04:21:39;;;;;;;;;;;16.80;61.00;;;;;;5038200;28;1255;-68
2024/01/20 04:24:05;;;;;;;;;;;16.80;61.00;;;;;;5037538;28;1991;-69
2024/01/20 04:26:30;;;;;;;;;;;16.90;61.10;;;;;;5037628;28;1516;-69
2024/01/20 04:28:56;;;;;;;;;;;16.80;61.00;;;;;;5038331;28;1534;-67
2024/01/20 04:31:21;;;;;;;;;;;16.80;61.00;;;;;;5041107;28;1734;-69
2024/01/20 04:33:47;;;;;;;;;;;16.80;61.00;;;;;;5073150;28;1374;-68
2024/01/20 04:36:12;;;;;;;;;;;16.80;61.00;;;;;;5044893;28;1570;-68
2024/01/20 04:38:39;;;;;;;;;;;16.80;61.00;;;;;;5043018;28;1635;-67
2024/01/20 04:41:04;;;;;;;;;;;16.80;61.00;;;;;;5044519;28;1422;-67
2024/01/20 04:43:29;;;;;;;;;;;16.80;61.10;;;;;;5045409;28;1939;-67
2024/01/20 04:45:55;;;;;;;;;;;16.80;61.10;;;;;;5041086;28;1500;-70
2024/01/20 04:48:20;;;;;;;;;;;16.80;61.10;;;;;;5042501;28;1254;-66
2024/01/20 04:50:46;;;;;;;;;;;16.80;61.10;;;;;;5042895;28;1699;-67
2024/01/20 04:53:11;;;;;;;;;;;16.80;61.10;;;;;;5041700;28;1630;-68
2024/01/20 04:55:37;;;;;;;;;;;16.80;61.10;;;;;;5040306;28;1407;-67
2024/01/20 04:58:02;;;;;;;;;;;16.80;61.10;;;;;;5039582;28;1493;-67
2024/01/20 05:00:28;;;;;;;;;;;16.80;61.10;;;;;;5040497;28;1543;-69
2024/01/20 05:02:53;;;;;;;;;;;16.80;61.10;;;;;;5039280;28;1587;-68
2024/01/20 05:05:19;;;;;;;;;;;16.80;61.10;;;;;;5039288;28;1960;-66
2024/01/20 05:07:44;;;;;;;;;;;16.80;61.10;;;;;;5041685;28;1533;-69
2024/01/20 05:10:10;;;;;;;;;;;16.80;61.10;;;;;;5041983;28;1658;-69
2024/01/20 05:12:35;;;;;;;;;;;16.80;61.10;;;;;;5042270;28;1511;-66
2024/01/20 05:15:00;;;;;;;;;;;16.80;61.00;;;;;;5072295;28;1402;-69
2024/01/20 05:17:26;;;;;;;;;;;16.90;61.00;;;;;;5041996;28;1461;-69
2024/01/20 05:19:51;;;;;;;;;;;16.90;60.90;;;;;;5041448;28;1278;-68
2024/01/20 05:22:18;;;;;;;;;;;16.90;60.80;;;;;;5073336;28;1640;-70
2024/01/20 05:24:43;;;;;;;;;;;16.90;60.70;;;;;;5074220;28;1894;-70
2024/01/20 05:27:10;;;;;;;;;;;17.00;60.60;;;;;;5049227;28;1378;-69
2024/01/20 05:29:35;;;;;;;;;;;17.00;60.40;;;;;;5042269;28;1519;-69
2024/01/20 05:32:01;;;;;;;;;;;17.10;60.40;;;;;;5073538;28;1672;-69
2024/01/20 05:34:26;;;;;;;;;;;17.10;60.20;;;;;;5038484;28;1468;-68
2024/01/20 05:36:52;;;;;;;;;;;17.10;60.10;;;;;;5039242;28;1467;-68
2024/01/20 05:39:17;;;;;;;;;;;17.10;60.00;;;;;;5039231;28;1604;-68
2024/01/20 05:41:43;;;;;;;;;;;17.20;60.00;;;;;;5042312;28;1478;-68
2024/01/20 05:44:09;;;;;;;;;;;17.20;59.90;;;;;;5042782;28;1957;-68
2024/01/20 05:46:34;;;;;;;;;;;17.20;59.80;;;;;;5054169;28;1490;-67
2024/01/20 05:49:00;;;;;;;;;;;17.20;59.70;;;;;;5041454;28;1470;-68
2024/01/20 05:51:25;;;;;;;;;;;17.30;59.70;;;;;;5041721;28;1541;-68
2024/01/20 05:53:51;;;;;;;;;;;17.30;59.60;;;;;;5028155;28;1386;-68
2024/01/20 05:56:20;;;;;;;;;;;17.30;59.60;;;;;;5041626;28;1765;-68
2024/01/20 05:58:45;;;;;;;;;;;17.30;59.50;;;;;;5042686;28;1364;-68
2024/01/20 06:01:11;;;;;;;;;;;17.30;59.50;;;;;;5038839;28;1462;-68
2024/01/20 06:03:36;;;;;;;;;;;17.30;59.50;;;;;;5041857;28;1914;-67
2024/01/20 06:06:02;;;;;;;;;;;17.30;59.50;;;;;;5039462;28;1671;-69
2024/01/20 06:08:27;;;;;;;;;;;17.40;59.50;;;;;;5037805;28;1494;-67
2024/01/20 06:10:53;;;;;;;;;;;17.30;59.40;;;;;;5039845;28;1395;-68
2024/01/20 06:13:18;;;;;;;;;;;17.40;59.40;;;;;;5037993;28;1734;-69
2024/01/20 06:15:44;;;;;;;;;;;17.40;59.40;;;;;;5041174;28;1434;-68
2024/01/20 06:18:09;;;;;;;;;;;17.40;59.40;;;;;;5041696;28;1600;-69
2024/01/20 06:20:35;;;;;;;;;;;17.40;59.40;;;;;;5072650;28;1755;-69
2024/01/20 06:23:00;;;;;;;;;;;17.40;59.30;;;;;;5037012;28;1618;-69
2024/01/20 06:25:26;;;;;;;;;;;17.40;59.30;;;;;;5040609;28;1890;-69
2024/01/20 06:27:51;;;;;;;;;;;17.40;59.30;;;;;;5047478;28;1543;-70
2024/01/20 06:30:17;;;;;;;;;;;17.40;59.30;;;;;;5043370;28;1112;-69
2024/01/20 06:32:42;;;;;;;;;;;17.40;59.30;;;;;;5040181;28;1113;-69
2024/01/20 06:35:08;;;;;;;;;;;17.40;59.30;;;;;;5042085;28;1594;-69
2024/01/20 06:37:34;;;;;;;;;;;17.40;59.30;;;;;;5039467;28;1364;-68
2024/01/20 06:39:59;;;;;;;;;;;17.40;59.30;;;;;;5042801;28;1520;-68
2024/01/20 06:42:25;;;;;;;;;;;17.40;59.30;;;;;;5041299;28;1546;-68
2024/01/20 06:44:51;;;;;;;;;;;17.40;59.30;;;;;;5038848;28;1953;-68
2024/01/20 06:47:17;;;;;;;;;;;17.40;59.30;;;;;;5041276;28;1478;-68
2024/01/20 06:49:43;;;;;;;;;;;17.40;59.30;;;;;;5040471;28;1076;-68
2024/01/20 06:52:09;;;;;;;;;;;17.40;59.30;;;;;;5039024;28;896;-67
2024/01/20 06:54:35;;;;;;;;;;;17.40;59.30;;;;;;5040161;28;1288;-68
2024/01/20 06:57:00;;;;;;;;;;;17.40;59.30;;;;;;5040135;28;1004;-67
2024/01/20 06:59:26;;;;;;;;;;;17.40;59.40;;;;;;5052837;28;1331;-67
2024/01/20 07:01:52;;;;;;;;;;;17.40;59.40;;;;;;5036264;28;1165;-69
2024/01/20 07:04:20;;;;;;;;;;;17.40;59.40;;;;;;5037105;28;1910;-69
2024/01/20 07:06:45;;;;;;;;;;;17.40;59.40;;;;;;5040517;28;1296;-68
2024/01/20 07:09:11;;;;;;;;;;;17.40;59.40;;;;;;5070149;28;1137;-69
2024/01/20 07:11:36;;;;;;;;;;;17.40;59.40;;;;;;5041449;28;1440;-68
2024/01/20 07:14:02;;;;;;;;;;;17.40;59.40;;;;;;5039896;28;1258;-69
2024/01/20 07:16:27;;;;;;;;;;;17.30;59.40;;;;;;5041819;28;1669;-69
2024/01/20 07:18:53;;;;;;;;;;;17.40;59.50;;;;;;5040515;28;1349;-66
2024/01/20 07:21:18;;;;;;;;;;;17.30;59.50;;;;;;5038825;28;1356;-69
2024/01/20 07:23:44;;;;;;;;;;;17.30;59.50;;;;;;5037888;28;1899;-69
2024/01/20 07:26:09;;;;;;;;;;;17.30;59.50;;;;;;5039138;28;1544;-66
2024/01/20 07:28:34;;;;;;;;;;;17.30;59.50;;;;;;5038984;28;1288;-67
2024/01/20 07:31:00;;;;;;;;;;;17.30;59.50;;;;;;5038156;28;1491;-68
2024/01/20 07:33:25;;;;;;;;;;;17.30;59.60;;;;;;5070134;28;1367;-69
2024/01/20 07:35:51;;;;;;;;;;;17.30;59.60;;;;;;5037614;28;1369;-69
2024/01/20 07:38:16;;;;;;;;;;;17.30;59.60;;;;;;5041859;28;1694;-69
2024/01/20 07:40:42;;;;;;;;;;;17.30;59.70;;;;;;5040294;28;1368;-69
2024/01/20 07:43:07;;;;;;;;;;;17.30;59.70;;;;;;5041041;28;1448;-68
2024/01/20 07:45:33;;;;;;;;;;;17.30;59.70;;;;;;5041001;28;1999;-69
2024/01/20 07:47:58;;;;;;;;;;;17.20;59.70;;;;;;5037840;28;1652;-69
2024/01/20 07:50:24;;;;;;;;;;;17.20;59.70;;;;;;5041892;28;1516;-69
2024/01/20 07:52:49;;;;;;;;;;;17.20;59.70;;;;;;5039362;28;1598;-67
2024/01/20 07:55:15;;;;;;;;;;;17.20;59.80;;;;;;5039726;28;1785;-69
2024/01/20 07:57:40;;;;;;;;;;;17.20;59.80;;;;;;5037038;28;1710;-69
2024/01/20 08:00:06;;;;;;;;;;;17.20;59.80;;;;;;5040608;28;1608;-69
2024/01/20 08:02:32;;;;;;;;;;;17.20;59.80;;;;;;5037012;28;1653;-69
2024/01/20 08:04:57;;;;;;;;;;;17.20;59.90;;;;;;5034896;28;1914;-68
2024/01/20 08:07:23;;;;;;;;;;;17.20;59.90;;;;;;5042035;28;1949;-69
2024/01/20 08:09:48;;;;;;;;;;;17.20;59.90;;;;;;5038352;28;2286;-69
2024/01/20 08:12:14;;;;;;;;;;;17.20;59.90;;;;;;5037600;28;1399;-69
2024/01/20 08:14:39;;;;;;;;;;;17.20;59.90;;;;;;5038338;28;1309;-69
2024/01/20 08:17:04;;;;;;;;;;;17.20;59.90;;;;;;5037709;28;1475;-69
2024/01/20 08:19:30;;;;;;;;;;;17.20;59.90;;;;;;5040007;28;1462;-70
2024/01/20 08:21:55;;;;;;;;;;;17.20;59.90;;;;;;5071305;28;1392;-69
2024/01/20 08:24:21;;;;;;;;;;;17.20;59.90;;;;;;5068358;28;1963;-69
2024/01/20 08:26:46;;;;;;;;;;;17.20;59.80;;;;;;5037686;28;1257;-68
2024/01/20 08:29:12;;;;;;;;;;;17.20;59.80;;;;;;5038874;28;1682;-70
2024/01/20 08:31:37;;;;;;;;;;;17.20;59.80;;;;;;5037758;28;1554;-69
2024/01/20 08:34:03;;;;;;;;;;;17.30;59.80;;;;;;5035276;28;1450;-69
2024/01/20 08:36:29;;;;;;;;;;;17.30;59.80;;;;;;5036489;28;1575;-69
2024/01/20 08:38:54;;;;;;;;;;;17.30;59.70;;;;;;5038431;28;1604;-70
2024/01/20 08:41:20;;;;;;;;;;;17.30;59.70;;;;;;5039850;28;1316;-70
2024/01/20 08:43:45;;;;;;;;;;;17.30;59.60;;;;;;5036775;28;1945;-70
2024/01/20 08:46:11;;;;;;;;;;;17.30;59.60;;;;;;5035803;28;1280;-69
2024/01/20 08:48:36;;;;;;;;;;;17.30;60.20;;;;;;5068048;28;1607;-69
2024/01/20 08:51:02;;;;;;;;;;;17.30;59.50;;;;;;5068240;28;1477;-69
2024/01/20 08:53:27;;;;;;;;;;;17.30;59.50;;;;;;5040135;28;1514;-68
2024/01/20 08:55:53;;;;;;;;;;;17.40;59.50;;;;;;5039047;28;1443;-69
2024/01/20 08:58:18;;;;;;;;;;;17.40;59.50;;;;;;5038528;28;1406;-70
2024/01/20 09:00:44;;;;;;;;;;;17.40;59.50;;;;;;5038149;28;1481;-70
2024/01/20 09:03:09;;;;;;;;;;;17.40;59.40;;;;;;5037201;28;1358;-68
2024/01/20 09:05:35;;;;;;;;;;;17.40;59.40;;;;;;5038428;28;1967;-70
2024/01/20 09:08:00;;;;;;;;;;;17.40;59.40;;;;;;5038207;28;1419;-70
2024/01/20 09:10:26;;;;;;;;;;;17.40;59.40;;;;;;5041419;28;1277;-69
2024/01/20 09:12:51;;;;;;;;;;;17.40;59.30;;;;;;5069103;28;1461;-70
2024/01/20 09:15:17;;;;;;;;;;;17.40;59.30;;;;;;5035751;28;1534;-70
2024/01/20 09:17:42;;;;;;;;;;;17.40;59.30;;;;;;5037552;28;1438;-69
2024/01/20 09:20:08;;;;;;;;;;;17.40;59.30;;;;;;5043245;28;1462;-70
2024/01/20 09:22:34;;;;;;;;;;;17.40;59.30;;;;;;5040219;28;1440;-68
2024/01/20 09:25:01;;;;;;;;;;;17.40;59.30;;;;;;5040137;28;1894;-69
2024/01/20 09:27:27;;;;;;;;;;;17.40;59.20;;;;;;5042002;28;1502;-69
2024/01/20 09:29:52;;;;;;;;;;;17.40;59.20;;;;;;5041836;28;1340;-68
2024/01/20 09:32:18;;;;;;;;;;;17.40;59.20;;;;;;5041527;28;1389;-68
2024/01/20 09:34:43;;;;;;;;;;;17.40;59.20;;;;;;5041062;28;1494;-68
2024/01/20 09:37:09;;;;;;;;;;;17.50;59.30;;;;;;5042557;28;1279;-68
2024/01/20 09:39:34;;;;;;;;;;;17.50;59.30;;;;;;5037371;28;1636;-67
2024/01/20 09:41:59;;;;;;;;;;;17.50;59.30;;;;;;5039200;28;1452;-68
2024/01/20 09:44:25;;;;;;;;;;;17.50;59.30;;;;;;5044092;28;1963;-67
2024/01/20 09:46:51;;;;;;;;;;;17.50;59.20;;;;;;5042323;28;1180;-68
2024/01/20 09:49:17;;;;;;;;;;;17.50;59.30;;;;;;5043042;28;1671;-67
2024/01/20 09:51:45;;;;;;;;;;;17.50;59.20;;;;;;5040331;28;1603;-68
2024/01/20 09:54:10;;;;;;;;;;;17.50;59.20;;;;;;5040387;28;1458;-68
2024/01/20 09:56:36;;;;;;;;;;;17.50;59.20;;;;;;5041447;28;1744;-68
2024/01/20 09:59:01;;;;;;;;;;;17.50;59.20;;;;;;5038468;28;1476;-67
2024/01/20 10:01:27;;;;;;;;;;;17.50;59.20;;;;;;5054107;28;1488;-68
2024/01/20 10:03:54;;;;;;;;;;;17.50;59.20;;;;;;5038557;28;1981;-68
2024/01/20 10:06:19;;;;;;;;;;;17.50;59.20;;;;;;5040773;28;1411;-68
2024/01/20 10:08:45;;;;;;;;;;;17.50;59.20;;;;;;5042454;28;1860;-66
2024/01/20 10:11:10;;;;;;;;;;;17.50;59.20;;;;;;5039665;28;1165;-66
2024/01/20 10:13:36;;;;;;;;;;;17.50;59.20;;;;;;5042743;28;1031;-68
2024/01/20 10:16:04;;;;;;;;;;;17.50;59.30;;;;;;5071755;28;1458;-68
2024/01/20 10:18:30;;;;;;;;;;;17.50;59.20;;;;;;5041112;28;1453;-67
2024/01/20 10:21:05;;;;;;;;;;;17.50;59.20;;;;;;5039274;28;853;-68
2024/01/20 10:23:35;;;;;;;;;;;17.50;59.20;;;;;;5040117;28;1898;-66
2024/01/20 10:26:01;;;;;;;;;;;17.50;59.20;;;;;;5071077;28;1553;-67
2024/01/20 10:28:27;;;;;;;;;;;17.50;59.20;;;;;;5041480;28;1509;-68
2024/01/20 10:30:52;;;;;;;;;;;17.50;59.30;;;;;;5042148;28;1508;-68
2024/01/20 10:33:18;;;;;;;;;;;17.50;59.30;;;;;;5073233;28;1477;-69
2024/01/20 10:35:43;;;;;;;;;;;17.50;59.20;;;;;;5072359;28;1508;-66
2024/01/20 10:38:10;;;;;;;;;;;17.50;59.30;;;;;;5041716;28;1461;-67
2024/01/20 10:40:36;;;;;;;;;;;17.50;59.30;;;;;;5048303;28;1601;-67
2024/01/20 10:43:04;;;;;;;;;;;17.50;59.30;;;;;;5036884;28;1265;-68
2024/01/20 10:45:32;;;;;;;;;;;17.50;59.30;;;;;;5030242;28;1898;-66
2024/01/20 10:47:58;;;;;;;;;;;17.50;59.30;;;;;;5069600;28;1658;-65
2024/01/20 10:50:23;;;;;;;;;;;17.40;59.20;;;;;;5034018;28;801;-66
2024/01/20 10:52:49;;;;;;;;;;;17.50;59.30;;;;;;5025278;28;1321;-68
2024/01/20 10:55:15;;;;;;;;;;;17.50;59.30;;;;;;5032914;28;1201;-68
2024/01/20 10:57:40;;;;;;;;;;;17.40;59.20;;;;;;5034333;28;887;-66
2024/01/20 11:00:08;;;;;;;;;;;17.40;59.20;;;;;;5021619;28;1294;-68
2024/01/20 11:02:34;;;;;;;;;;;17.40;59.20;;;;;;5055806;28;1513;-67
2024/01/20 11:04:59;;;;;;;;;;;17.40;59.20;;;;;;5060464;28;1960;-66
2024/01/20 11:07:28;;;;;;;;;;;17.40;59.20;;;;;;5035454;28;1085;-67
2024/01/20 11:09:58;;;;;;;;;;;17.40;59.20;;;;;;5039208;28;1471;-68
2024/01/20 11:12:23;;;;;;;;;;;17.40;59.30;;;;;;5038539;28;1513;-68
2024/01/20 11:14:52;;;;;;;;;;;17.40;59.20;;;;;;5036891;28;1446;-68
2024/01/20 11:17:18;;;;;;;;;;;17.40;59.30;;;;;;5022965;28;1706;-68
2024/01/20 11:19:43;;;;;;;;;;;17.40;59.30;;;;;;5034567;28;1557;-68
2024/01/20 11:22:28;;;;;;;;;;;17.40;59.30;;;;;;5071273;28;1340;-68
2024/01/20 11:24:54;;;;;;;;;;;17.40;59.40;;;;;;5033617;28;1985;-70
2024/01/20 11:27:19;;;;;;;;;;;17.40;59.40;;;;;;5032546;28;1313;-66
2024/01/20 11:29:44;;;;;;;;;;;17.40;59.40;;;;;;5033890;28;776;-66
2024/01/20 11:32:10;;;;;;;;;;;17.40;59.50;;;;;;5065994;28;1153;-66
2024/01/20 11:34:35;;;;;;;;;;;17.40;59.50;;;;;;5031984;28;1169;-70
2024/01/20 11:37:01;;;;;;;;;;;17.40;59.50;;;;;;5032966;28;888;-66
2024/01/20 11:39:27;;;;;;;;;;;17.40;59.50;;;;;;5031570;28;1438;-66
2024/01/20 11:42:00;;;;;;;;;;;17.30;59.40;;;;;;5033337;28;887;-67
2024/01/20 11:44:26;;;;;;;;;;;17.40;59.50;;;;;;5033107;28;1890;-66
2024/01/20 11:46:52;;;;;;;;;;;17.40;59.50;;;;;;5048386;28;872;-65
2024/01/20 11:49:17;;;;;;;;;;;17.40;59.50;;;;;;5051872;28;789;-66
2024/01/20 11:51:43;;;;;;;;;;;17.40;59.50;;;;;;5051847;28;1139;-66
2024/01/20 11:54:08;;;;;;;;;;;17.40;59.50;;;;;;5051788;28;793;-67
2024/01/20 11:56:34;;;;;;;;;;;17.40;59.40;;;;;;5044963;28;2334;-65
2024/01/20 11:58:59;;;;;;;;;;;17.40;59.60;;;;;;5039452;28;1327;-67
2024/01/20 12:01:24;;;;;;;;;;;17.40;59.40;;;;;;5069758;28;1693;-67
2024/01/20 12:03:50;;;;;;;;;;;17.40;59.40;;;;;;5042782;28;1961;-65
2024/01/20 12:06:15;;;;;;;;;;;17.40;59.40;;;;;;5035712;28;1635;-65
2024/01/20 12:08:42;;;;;;;;;;;17.40;59.40;;;;;;5040293;28;1471;-67
2024/01/20 12:11:07;;;;;;;;;;;17.40;59.40;;;;;;5039879;28;1396;-66
2024/01/20 12:13:36;;;;;;;;;;;17.40;59.40;;;;;;5039521;28;1324;-68
2024/01/20 12:16:01;;;;;;;;;;;17.40;59.40;;;;;;5039650;28;1366;-68
2024/01/20 12:18:27;;;;;;;;;;;17.40;59.40;;;;;;5044805;28;1298;-66
2024/01/20 12:20:52;;;;;;;;;;;17.40;59.30;;;;;;5041262;28;1580;-65
2024/01/20 12:23:21;;;;;;;;;;;17.40;59.30;;;;;;5039359;28;1236;-65
2024/01/20 12:25:47;;;;;;;;;;;17.40;59.30;;;;;;5069952;28;1997;-65
2024/01/20 12:28:12;;;;;;;;;;;17.40;59.30;;;;;;5063237;28;1389;-65
2024/01/20 12:30:38;;;;;;;;;;;17.40;59.30;;;;;;5041909;28;1294;-67
2024/01/20 12:33:04;;;;;;;;;;;17.40;59.30;;;;;;5040061;28;1483;-66
2024/01/20 12:35:29;;;;;;;;;;;17.40;59.30;;;;;;5038580;28;1758;-67
2024/01/20 12:37:56;;;;;;;;;;;17.40;59.30;;;;;;5038423;28;1959;-66
2024/01/20 12:40:21;;;;;;;;;;;17.40;59.20;;;;;;5037988;28;1502;-67
2024/01/20 12:42:47;;;;;;;;;;;17.50;59.30;;;;;;5039531;28;1305;-68
2024/01/20 12:45:12;;;;;;;;;;;17.40;59.20;;;;;;5037225;28;1941;-67
2024/01/20 12:47:38;;;;;;;;;;;17.40;59.30;;;;;;5037576;28;1257;-67
2024/01/20 12:50:04;;;;;;;;;;;17.40;59.30;;;;;;5040322;28;982;-67
2024/01/20 12:52:29;;;;;;;;;;;17.40;59.30;;;;;;5037272;28;1435;-67
2024/01/20 12:54:55;;;;;;;;;;;17.40;59.30;;;;;;5042977;28;1308;-67
2024/01/20 12:57:20;;;;;;;;;;;17.40;59.40;;;;;;5049892;28;1376;-67
2024/01/20 12:59:46;;;;;;;;;;;17.40;59.40;;;;;;5043440;28;2173;-68
2024/01/20 13:02:12;;;;;;;;;;;17.40;59.40;;;;;;5042805;28;1585;-67
2024/01/20 13:04:39;;;;;;;;;;;17.40;59.50;;;;;;5043241;28;1906;-68
2024/01/20 13:07:05;;;;;;;;;;;17.40;59.50;;;;;;5074226;28;1643;-68
2024/01/20 13:09:30;;;;;;;;;;;17.40;59.50;;;;;;5043238;28;1257;-67
2024/01/20 13:11:55;;;;;;;;;;;17.30;59.50;;;;;;5043044;28;1466;-67
2024/01/20 13:14:21;;;;;;;;;;;17.30;59.50;;;;;;5075902;28;1333;-68
2024/01/20 13:16:46;;;;;;;;;;;17.30;59.60;;;;;;5041731;28;1514;-68
2024/01/20 13:19:12;;;;;;;;;;;17.30;59.60;;;;;;5041589;28;1516;-67
2024/01/20 13:21:37;;;;;;;;;;;17.30;59.60;;;;;;5039457;28;1279;-68
2024/01/20 13:24:04;;;;;;;;;;;17.30;59.60;;;;;;5072550;28;1961;-68
2024/01/20 13:26:29;;;;;;;;;;;17.30;59.70;;;;;;5042218;28;1337;-68
2024/01/20 13:28:55;;;;;;;;;;;17.30;59.70;;;;;;5043434;28;1271;-67
2024/01/20 13:31:20;;;;;;;;;;;17.30;59.70;;;;;;5041003;28;1728;-68
2024/01/20 13:33:45;;;;;;;;;;;17.30;59.70;;;;;;5037596;28;1458;-68
2024/01/20 13:36:11;;;;;;;;;;;17.20;59.70;;;;;;5075945;28;1662;-66
2024/01/20 13:38:39;;;;;;;;;;;17.30;59.80;;;;;;5040228;28;1313;-66
2024/01/20 13:41:05;;;;;;;;;;;17.30;59.80;;;;;;5044212;28;1312;-68
2024/01/20 13:43:30;;;;;;;;;;;17.20;59.80;;;;;;5041792;28;2028;-65
2024/01/20 13:45:56;;;;;;;;;;;17.20;59.80;;;;;;5049791;28;1340;-66
2024/01/20 13:48:21;;;;;;;;;;;17.20;59.90;;;;;;5049700;28;1273;-68
2024/01/20 13:50:47;;;;;;;;;;;17.20;59.90;;;;;;5041871;28;1244;-65
2024/01/20 13:53:13;;;;;;;;;;;17.20;59.90;;;;;;5043024;28;1628;-66
2024/01/20 13:55:38;;;;;;;;;;;17.20;59.90;;;;;;5044845;28;1276;-66
2024/01/20 13:58:04;;;;;;;;;;;17.20;60.00;;;;;;5043392;28;1515;-65
2024/01/20 14:00:29;;;;;;;;;;;17.20;60.00;;;;;;5042504;28;1335;-69
2024/01/20 14:02:57;;;;;;;;;;;17.20;60.00;;;;;;5039802;28;1366;-67
2024/01/20 14:05:23;;;;;;;;;;;17.20;60.00;;;;;;5055864;28;1910;-65
2024/01/20 14:07:48;;;;;;;;;;;17.20;60.10;;;;;;5047299;28;1318;-66
2024/01/20 14:10:14;;;;;;;;;;;17.20;60.10;;;;;;5043121;28;1600;-66
2024/01/20 14:12:40;;;;;;;;;;;17.10;60.10;;;;;;5043567;28;1235;-68
2024/01/20 14:15:05;;;;;;;;;;;17.10;60.10;;;;;;5040568;28;1531;-66
2024/01/20 14:17:32;;;;;;;;;;;17.10;60.10;;;;;;5040925;28;1328;-67
2024/01/20 14:19:57;;;;;;;;;;;17.10;60.10;;;;;;5038171;28;1295;-66
2024/01/20 14:22:23;;;;;;;;;;;17.10;60.10;;;;;;5040312;28;1363;-66